aviador You're here:

KGAD Decoded Metar

GADSDEN MUNI in AL, USA
Report Time2018-05-26 15:31:00
UTC Time2018-05-26 15:50:44
Flight Rules mvfr MVFR
WindCalm
Visibility9999 m
Phenomena:N/A
Clouds:Broken 020 Hf
Broken 025 Hf
Expected CloudBase > 1,600 ft AGL from Temp-Dew spread
Ceiling2,000 ft
Temp26°C (ISA +12)
Dew Point22°C (79% RH)
QNH1015 hPa
Density Alt2,251 ft
Elevation568 ft
Report Wrong Elevation
Raw Report
KGAD 261531Z AUTO 00000KT 10SM BKN020 BKN025 26/22 A2998 RMK
AO2=

Extra information for KGAD:More info

Metar Taf Metar & Taf Last 4 Metars F.Rules Stats Wind Profile Meteogram Temp Stats Airport Information Weather charts Add Link Nearby VenuesMetar ALERT Operation Metar Decoded Social comments

AIRNAV info for KGAD